Alts de Bayamon, Puerto Rico
Current Conditions -  °F | °C
As of 10:56 AM on Saturday 22 Nov 2014 (Local Time) from TJSJ Reporting Station
Overcast Overcast  
Wind Chill: 27°   Ceiling: 4000
Heat Index: 31°   Visibility: 10mi
Dew Point: 25°   Wind: 14mph
Humidity: 88%   Direction: 80°E
Pressure: 30.05"   Gusts: 24mph
Location:  18.1892°N, 66.1134°W
Report Text: TJSJ 221456Z 08012G21KT 10SM SCT018 BKN040 OVC070 27/25 A3005 RMK AO2 RAE49 SLP173 VIS LWR S-W P0000 60013 T02720250 51005
Loading
Personal Weather Stations






























Interactive Weather Map New forecast layout! Learn more

10-Day Weather Forecast

Advertisements
Track Severe Weather on mobile